Time;durP1;ratioP1;P1;durP2;ratioP2;P2;SDS_P1;SDS_P2;PMS_P1;PMS_P2;Temp;Humidity;BMP_temperature;BMP_pressure;BME280_temperature;BME280_humidity;BME280_pressure;Samples;Min_cycle;Max_cycle;Signal;HPM_P1;HPM_P2
2021/10/26 00:01:32;;;;;;;61.33;18.77;;;;;;;7.93;63.72;102520.02;1729515;82;21077;-62
2021/10/26 00:04:00;;;;;;;65.78;22.27;;;;;;;7.90;63.92;102518.67;1721685;81;21096;-63
2021/10/26 00:06:27;;;;;;;57.65;16.05;;;;;;;7.87;64.00;102511.98;1734424;81;21961;-62
2021/10/26 00:09:07;;;;;;;53.65;13.78;;;;;;;7.83;63.96;102507.48;1787384;79;21591;-62
2021/10/26 00:11:36;;;;;;;52.20;16.45;;;;;;;7.87;63.86;102501.30;1795016;79;21446;-61
2021/10/26 00:14:03;;;;;;;51.77;13.28;;;;;;;7.93;63.82;102512.00;1795833;79;21046;-68
2021/10/26 00:16:52;;;;;;;74.12;18.52;;;;;;;7.99;63.73;102509.34;1792092;78;21534;-63
2021/10/26 00:19:19;;;;;;;53.30;20.23;;;;;;;8.05;63.66;102503.58;1800947;78;21648;-63
2021/10/26 00:21:46;;;;;;;63.73;20.30;;;;;;;8.09;63.51;102504.06;1787937;79;22335;-61
2021/10/26 00:24:13;;;;;;;43.52;13.80;;;;;;;8.07;63.25;102503.12;1788138;79;21063;-62
2021/10/26 00:26:40;;;;;;;60.40;17.82;;;;;;;8.09;63.37;102501.39;1803425;79;21096;-62
2021/10/26 00:29:07;;;;;;;36.85;15.32;;;;;;;8.10;63.39;102501.37;1785183;79;21111;-68
2021/10/26 00:31:41;;;;;;;35.60;11.97;;;;;;;8.12;63.46;102496.05;1803175;79;21398;-70
2021/10/26 00:34:16;;;;;;;35.90;9.58;;;;;;;8.17;63.26;102488.47;1774053;78;21723;-72
2021/10/26 00:36:43;;;;;;;47.27;17.75;;;;;;;8.27;63.05;102490.73;1808176;79;21460;-68
2021/10/26 00:39:10;;;;;;;53.02;18.05;;;;;;;8.35;62.81;102485.41;1801816;79;21067;-70
2021/10/26 00:41:38;;;;;;;46.95;15.23;;;;;;;8.38;62.87;102479.19;1771401;79;21289;-70
2021/10/26 00:44:05;;;;;;;41.95;17.52;;;;;;;8.38;62.86;102484.53;1805293;79;21078;-62
2021/10/26 00:46:34;;;;;;;40.98;16.02;;;;;;;8.41;62.80;102479.19;1802581;79;21060;-62
2021/10/26 00:49:03;;;;;;;47.85;14.90;;;;;;;8.42;62.79;102488.98;1785699;78;21115;-61
2021/10/26 00:51:39;;;;;;;34.70;14.75;;;;;;;8.41;62.66;102484.53;1785108;79;21172;-62
2021/10/26 00:54:07;;;;;;;44.65;16.42;;;;;;;8.41;62.74;102489.88;1767287;80;21107;-61
2021/10/26 00:56:38;;;;;;;51.05;18.05;;;;;;;8.38;62.85;102483.20;1796268;79;22366;-64
2021/10/26 00:59:04;;;;;;;55.05;18.60;;;;;;;8.37;63.25;102488.09;1798643;79;21362;-64
2021/10/26 01:01:35;;;;;;;48.90;18.65;;;;;;;8.36;63.31;102485.85;1797229;79;21289;-63
2021/10/26 01:06:31;;;;;;;48.45;18.90;;;;;;;8.39;63.56;102484.52;1813170;79;21012;-69
2021/10/26 01:11:28;;;;;;;51.70;16.67;;;;;;;8.42;63.86;102487.22;1788720;79;21821;-69
2021/10/26 01:13:55;;;;;;;29.77;10.75;;;;;;;8.44;63.99;102485.88;1802571;79;21118;-68
2021/10/26 01:18:57;;;;;;;32.25;12.23;;;;;;;8.51;64.31;102486.38;1802583;79;22977;-69
2021/10/26 01:23:53;;;;;;;36.53;10.50;;;;;;;8.57;64.31;102475.69;1794264;79;21767;-70
2021/10/26 01:26:20;;;;;;;36.80;11.95;;;;;;;8.60;64.30;102475.69;1786570;79;20993;-70
2021/10/26 01:28:48;;;;;;;40.60;11.10;;;;;;;8.58;64.52;102477.47;1739147;80;21079;-69
2021/10/26 01:31:16;;;;;;;48.85;11.65;;;;;;;8.58;64.75;102474.80;1784032;79;21119;-61
2021/10/26 01:33:54;;;;;;;30.52;11.38;;;;;;;8.60;65.01;102470.34;1791212;79;21684;-64
2021/10/26 01:36:23;;;;;;;26.23;12.30;;;;;;;8.64;64.78;102464.98;1786490;79;21016;-62
2021/10/26 01:39:03;;;;;;;36.63;12.88;;;;;;;8.63;64.96;102467.22;1782453;79;21147;-63
2021/10/26 01:44:35;;;;;;;30.80;11.78;;;;;;;8.65;65.18;102465.44;1801399;78;21052;-63
2021/10/26 01:47:19;;;;;;;35.55;10.85;;;;;;;8.63;65.21;102465.88;1758510;79;21100;-63
2021/10/26 01:52:34;;;;;;;20.40;8.83;;;;;;;8.58;64.94;102466.77;1760779;80;21592;-62
2021/10/26 01:55:22;;;;;;;21.48;7.67;;;;;;;8.53;64.99;102468.56;1716270;82;21104;-68
2021/10/26 01:57:49;;;;;;;24.57;10.72;;;;;;;8.53;64.97;102464.55;1789888;78;22132;-61
2021/10/26 02:00:21;;;;;;;39.55;9.53;;;;;;;8.53;65.04;102465.89;1782889;79;21513;-62
2021/10/26 02:03:05;;;;;;;32.03;7.80;;;;;;;8.49;65.25;102462.70;1765014;79;21062;-63
2021/10/26 02:10:37;;;;;;;27.50;7.25;;;;;;;8.52;65.24;102462.77;1784103;79;21040;-62
2021/10/26 02:13:05;;;;;;;20.02;8.10;;;;;;;8.53;65.31;102459.20;1788598;79;21847;-61
2021/10/26 02:15:34;;;;;;;36.08;8.00;;;;;;;8.54;65.27;102456.97;1756690;79;21063;-68
2021/10/26 02:18:01;;;;;;;34.88;8.13;;;;;;;8.54;65.46;102456.06;1773180;79;21032;-67
2021/10/26 02:20:28;;;;;;;29.37;6.70;;;;;;;8.55;65.41;102461.43;1786331;78;21040;-70
2021/10/26 02:22:55;;;;;;;31.23;8.20;;;;;;;8.56;65.47;102463.21;1789360;79;21025;-69
2021/10/26 02:30:40;;;;;;;28.90;9.83;;;;;;;8.51;65.92;102460.08;1765410;80;21580;-69
2021/10/26 02:35:45;;;;;;;;;;;;;;;8.49;66.15;102458.69;1797612;78;21530;-61
2021/10/26 02:38:12;;;;;;;27.37;10.15;;;;;;;8.48;66.40;102463.59;1791145;78;22412;-69
2021/10/26 02:43:14;;;;;;;27.67;8.43;;;;;;;8.41;66.96;102460.47;1794369;79;27294;-69
2021/10/26 02:53:52;;;;;;;;;;;;;;;8.44;67.84;102457.80;1737401;80;22264;-63
2021/10/26 02:58:57;;;;;;;19.82;9.00;;;;;;;8.49;67.99;102453.34;1745288;81;21053;-61
2021/10/26 03:01:25;;;;;;;21.60;9.08;;;;;;;8.52;67.95;102453.41;1750810;81;21109;-61
2021/10/26 03:06:33;;;;;;;23.85;8.15;;;;;;;8.63;67.96;102459.20;1736738;81;21113;-69
2021/10/26 03:09:00;;;;;;;31.42;9.28;;;;;;;8.64;67.99;102449.85;1746900;80;21094;-70
2021/10/26 03:11:30;;;;;;;20.68;7.78;;;;;;;8.66;67.90;102459.19;1742866;81;21127;-69
2021/10/26 03:13:58;;;;;;;28.52;8.53;;;;;;;8.64;68.02;102448.95;1763437;81;21095;-69
2021/10/26 03:16:25;;;;;;;34.90;9.50;;;;;;;8.66;68.12;102453.84;1760542;81;21048;-70
2021/10/26 03:18:52;;;;;;;35.92;9.53;;;;;;;8.66;68.04;102443.15;1750296;79;21057;-69
2021/10/26 03:21:19;;;;;;;32.58;8.50;;;;;;;8.65;68.27;102442.70;1754518;79;21444;-69
2021/10/26 03:23:46;;;;;;;21.42;9.00;;;;;;;8.67;68.25;102444.50;1752672;80;21111;-62
2021/10/26 03:26:14;;;;;;;21.93;8.88;;;;;;;8.69;68.21;102443.14;1757021;80;21132;-62
2021/10/26 03:28:41;;;;;;;21.97;7.65;;;;;;;8.67;68.26;102441.83;1747260;81;21847;-69
2021/10/26 03:31:10;;;;;;;19.07;7.78;;;;;;;8.66;68.37;102443.15;1750471;81;21132;-61
2021/10/26 03:33:54;;;;;;;22.70;7.45;;;;;;;8.69;68.49;102443.14;1719031;82;21689;-62
2021/10/26 03:36:21;;;;;;;20.68;7.55;;;;;;;8.71;68.38;102440.93;1727822;81;21119;-62
2021/10/26 03:38:50;;;;;;;26.73;8.15;;;;;;;8.72;68.44;102436.02;1743498;81;21323;-64
2021/10/26 03:41:17;;;;;;;21.27;7.42;;;;;;;8.75;68.35;102432.47;1741003;81;21800;-61
2021/10/26 03:43:49;;;;;;;42.58;7.00;;;;;;;8.77;68.27;102434.69;1752561;80;21034;-61
2021/10/26 03:46:27;;;;;;;21.55;6.12;;;;;;;8.76;68.11;102443.61;1750300;79;21129;-62
2021/10/26 03:48:55;;;;;;;15.13;4.10;;;;;;;8.73;68.29;102432.89;1741901;81;21106;-62
2021/10/26 03:51:22;;;;;;;21.42;6.15;;;;;;;8.78;68.09;102432.89;1737317;81;21074;-69
2021/10/26 03:53:49;;;;;;;23.22;6.55;;;;;;;8.82;67.96;102435.58;1757602;81;21129;-69
2021/10/26 03:56:17;;;;;;;14.47;4.95;;;;;;;8.87;68.21;102436.45;1722960;81;21037;-62
2021/10/26 04:01:22;;;;;;;9.05;3.98;;;;;;;9.01;67.77;102438.23;1761782;80;21029;-63
2021/10/26 04:03:50;;;;;;;6.50;3.10;;;;;;;9.09;67.27;102436.43;1728138;82;21012;-69
2021/10/26 04:11:27;;;;;;;8.60;3.10;;;;;;;9.26;66.21;102432.84;1725627;80;21014;-68
2021/10/26 04:13:57;;;;;;;8.83;3.02;;;;;;;9.32;65.96;102436.83;1714867;82;21344;-68
2021/10/26 04:16:24;;;;;;;4.40;2.52;;;;;;;9.34;65.53;102427.00;1731454;81;21018;-68
2021/10/26 04:18:52;;;;;;;4.28;2.45;;;;;;;9.38;65.29;102425.22;1731116;82;21498;-69
2021/10/26 04:21:19;;;;;;;5.62;2.87;;;;;;;9.38;65.37;102418.52;1779484;79;21059;-68
2021/10/26 04:23:47;;;;;;;4.08;2.35;;;;;;;9.39;65.56;102421.17;1776875;79;21096;-69
2021/10/26 04:26:15;;;;;;;7.42;3.12;;;;;;;9.40;65.54;102424.33;1765693;78;21489;-70
2021/10/26 04:28:42;;;;;;;4.00;2.22;;;;;;;9.45;66.01;102422.52;1778047;79;21131;-62
2021/10/26 04:31:10;;;;;;;20.25;3.12;;;;;;;9.54;66.13;102423.37;1793270;79;21908;-63
2021/10/26 04:33:37;;;;;;;11.30;2.83;;;;;;;9.54;66.30;102411.32;1799424;79;20922;-70
2021/10/26 04:36:04;;;;;;;18.98;2.67;;;;;;;9.59;66.60;102414.86;1764890;80;21048;-70
2021/10/26 04:38:50;;;;;;;9.55;2.60;;;;;;;9.66;66.65;102430.03;1798774;78;21488;-68
2021/10/26 04:41:34;;;;;;;4.05;2.40;;;;;;;9.68;66.60;102421.53;1763756;80;21070;-62
2021/10/26 04:44:10;;;;;;;4.20;2.40;;;;;;;9.67;66.40;102419.76;1724610;82;21147;-69
2021/10/26 04:46:37;;;;;;;7.03;2.45;;;;;;;9.71;66.38;102420.17;1734172;80;21016;-61
2021/10/26 04:49:04;;;;;;;5.55;2.45;;;;;;;9.75;65.93;102411.22;1724553;80;21019;-62
2021/10/26 04:51:32;;;;;;;6.12;2.60;;;;;;;9.80;65.88;102415.66;1726464;82;21075;-62
2021/10/26 04:54:00;;;;;;;7.00;2.70;;;;;;;9.86;65.58;102414.31;1730232;82;21083;-69
2021/10/26 04:56:36;;;;;;;5.67;2.85;;;;;;;9.88;65.79;102413.39;1800933;78;21932;-60
2021/10/26 04:59:16;;;;;;;6.00;3.02;;;;;;;9.95;65.63;102408.89;1701160;82;21132;-62
2021/10/26 05:02:12;;;;;;;7.87;2.25;;;;;;;9.99;64.70;102418.69;1683989;82;21074;-61
2021/10/26 05:04:41;;;;;;;5.70;2.75;;;;;;;10.00;64.28;102421.80;1683085;82;21162;-61
2021/10/26 05:07:11;;;;;;;5.45;2.70;;;;;;;9.99;64.33;102417.34;1683983;82;21560;-62
2021/10/26 05:09:38;;;;;;;7.17;2.98;;;;;;;10.03;64.25;102428.95;1685363;82;21123;-70
2021/10/26 05:12:25;;;;;;;3.92;2.45;;;;;;;10.01;63.94;102416.88;1684389;82;21090;-70
2021/10/26 05:14:51;;;;;;;5.92;2.65;;;;;;;10.03;63.74;102428.95;1674006;85;21062;-64
2021/10/26 05:20:25;;;;;;;8.58;2.65;;;;;;;10.07;63.33;102425.81;1684626;82;21592;-62
2021/10/26 05:22:55;;;;;;;5.95;2.77;;;;;;;10.07;63.30;102421.33;1735840;78;21823;-70
2021/10/26 05:25:21;;;;;;;7.45;2.72;;;;;;;10.10;63.65;102428.47;1790046;79;21457;-69
2021/10/26 05:38:12;;;;;;;7.10;2.90;;;;;;;10.22;62.27;102424.35;1787978;78;21669;-62
2021/10/26 05:45:37;;;;;;;7.30;2.92;;;;;;;10.21;60.63;102437.78;1776422;79;21071;-63
2021/10/26 05:48:05;;;;;;;5.33;2.92;;;;;;;10.19;60.94;102429.73;1797641;77;21121;-62
2021/10/26 05:50:32;;;;;;;6.45;2.87;;;;;;;10.26;60.97;102436.83;1789914;78;21452;-70
2021/10/26 05:52:59;;;;;;;8.43;2.87;;;;;;;10.32;60.43;102435.47;1783226;78;21577;-69
2021/10/26 05:55:26;;;;;;;5.40;2.60;;;;;;;10.37;60.52;102445.27;1794643;79;21425;-69
2021/10/26 06:00:39;;;;;;;5.90;2.72;;;;;;;10.44;60.12;102445.25;1799130;78;21112;-70
2021/10/26 06:03:06;;;;;;;10.68;3.00;;;;;;;10.52;60.07;102442.52;1783609;78;21108;-62
2021/10/26 06:05:34;;;;;;;4.92;2.62;;;;;;;10.58;60.21;102448.26;1753791;78;21052;-61
2021/10/26 06:08:02;;;;;;;6.62;2.70;;;;;;;10.64;60.30;102441.53;1787842;77;21840;-61
2021/10/26 06:10:31;;;;;;;9.60;3.05;;;;;;;10.71;60.30;102443.69;1790209;78;21323;-61
2021/10/26 06:23:49;;;;;;;7.10;2.62;;;;;;;10.97;60.45;102447.95;1762127;80;21495;-63
2021/10/26 06:26:16;;;;;;;7.45;2.87;;;;;;;11.03;59.96;102446.55;1795018;77;21116;-61
2021/10/26 06:33:53;;;;;;;9.63;2.80;;;;;;;11.17;60.20;102444.63;1757110;79;21141;-65
2021/10/26 06:36:21;;;;;;;6.60;2.62;;;;;;;11.21;60.13;102444.59;1755643;79;21992;-61
2021/10/26 06:39:07;;;;;;;4.33;2.30;;;;;;;11.26;59.82;102444.95;1760252;79;22006;-63
2021/10/26 06:44:31;;;;;;;6.33;2.60;;;;;;;11.26;58.92;102438.70;1628541;86;21457;-63
2021/10/26 06:47:18;;;;;;;6.35;2.35;;;;;;;11.25;58.72;102445.86;1736137;81;21393;-63
2021/10/26 06:52:43;;;;;;;4.50;2.80;;;;;;;11.30;58.32;102445.81;1677628;83;21745;-62
2021/10/26 06:55:29;;;;;;;6.37;2.40;;;;;;;11.32;58.05;102438.62;1651335;84;22116;-63
2021/10/26 06:58:20;;;;;;;10.20;2.30;;;;;;;11.30;57.18;102449.41;1684939;83;21142;-63
2021/10/26 07:01:20;;;;;;;5.50;2.58;;;;;;;11.32;57.58;102442.22;1771587;78;21059;-61
2021/10/26 07:03:58;;;;;;;6.72;2.40;;;;;;;11.37;57.58;102442.14;1793359;79;21028;-63
2021/10/26 07:06:37;;;;;;;4.03;2.40;;;;;;;11.44;57.07;102442.53;1784503;79;21088;-63
2021/10/26 07:09:44;;;;;;;6.87;2.52;;;;;;;11.49;57.45;102446.95;1781065;78;21530;-64
2021/10/26 07:12:16;;;;;;;5.12;2.33;;;;;;;11.50;57.66;102442.02;1787472;78;21047;-63
2021/10/26 07:14:45;;;;;;;5.12;2.60;;;;;;;11.54;57.10;102443.75;1792529;78;21341;-62
2021/10/26 07:17:12;;;;;;;6.95;2.67;;;;;;;11.54;57.00;102453.16;1796646;78;21099;-63
2021/10/26 07:19:46;;;;;;;4.55;2.77;;;;;;;11.53;56.74;102441.98;1788734;77;21530;-62
2021/10/26 07:22:54;;;;;;;4.70;2.72;;;;;;;11.55;56.73;102438.81;1788703;78;21147;-63
2021/10/26 07:25:46;;;;;;;6.15;2.80;;;;;;;11.61;56.44;102438.77;1701842;83;21084;-64
2021/10/26 07:28:14;;;;;;;6.35;3.08;;;;;;;11.64;56.31;102429.31;1700662;82;21172;-62
2021/10/26 07:33:32;;;;;;;5.67;2.77;;;;;;;11.71;56.44;102443.09;1662261;81;21873;-62
2021/10/26 07:38:42;;;;;;;8.98;2.87;;;;;;;11.77;55.66;102442.58;1746941;79;21128;-62
2021/10/26 07:41:21;;;;;;;2.60;2.00;;;;;;;11.82;55.87;102456.40;1805371;77;20877;-64
2021/10/26 07:44:08;;;;;;;5.15;2.67;;;;;;;11.85;55.27;102450.11;1800300;77;21193;-64
2021/10/26 07:47:23;;;;;;;5.28;2.85;;;;;;;11.77;55.25;102449.30;1755631;80;21210;-63
2021/10/26 07:58:11;;;;;;;;;;;;;;;11.90;55.48;102442.86;1798669;78;21106;-61
2021/10/26 08:00:37;;;;;;;3.65;2.45;;;;;;;11.93;55.08;102444.59;1797021;78;21124;-64
2021/10/26 08:03:22;;;;;;;4.75;2.30;;;;;;;11.89;55.38;102446.46;1754340;80;21663;-62
2021/10/26 08:06:34;;;;;;;5.58;2.98;;;;;;;11.91;55.44;102444.64;1781141;78;21115;-61
2021/10/26 08:14:27;;;;;;;4.87;2.70;;;;;;;12.08;54.19;102445.77;1793356;77;21513;-62
2021/10/26 08:16:54;;;;;;;7.05;2.50;;;;;;;12.15;53.75;102446.58;1796938;77;21003;-62
2021/10/26 08:19:22;;;;;;;3.87;2.55;;;;;;;12.24;53.36;102450.94;1793959;78;21071;-63
2021/10/26 08:21:59;;;;;;;6.15;2.25;;;;;;;12.27;53.34;102440.13;1796490;78;21552;-61
2021/10/26 08:24:30;;;;;;;5.62;2.98;;;;;;;12.34;53.23;102449.00;1802374;77;21064;-61
2021/10/26 08:48:17;;;;;;;4.42;2.10;;;;;;;12.49;52.61;102451.47;1774925;80;21482;-61
2021/10/26 08:50:48;;;;;;;3.90;2.20;;;;;;;12.48;52.94;102453.69;1771140;79;21736;-63
2021/10/26 08:56:00;;;;;;;6.65;2.30;;;;;;;12.57;53.01;102450.87;1751635;80;21077;-61
2021/10/26 08:58:45;;;;;;;4.03;2.27;;;;;;;12.63;52.27;102463.34;1749751;81;21094;-62
2021/10/26 09:01:14;;;;;;;12.25;2.80;;;;;;;12.65;51.63;102456.58;1760998;80;22139;-63
2021/10/26 09:03:53;;;;;;;3.35;1.87;;;;;;;12.65;51.78;102451.20;1767407;80;21609;-63
2021/10/26 09:06:28;;;;;;;4.00;2.10;;;;;;;12.73;51.94;102449.28;1708079;80;21091;-64
2021/10/26 09:08:57;;;;;;;4.40;2.35;;;;;;;12.75;51.89;102442.94;1754340;79;21123;-63
2021/10/26 09:11:39;;;;;;;4.62;1.92;;;;;;;12.79;51.92;102446.48;1730958;81;21066;-62
2021/10/26 09:17:28;;;;;;;3.83;2.00;;;;;;;12.81;52.12;102439.27;1771991;79;21064;-62
2021/10/26 09:20:16;;;;;;;7.22;2.25;;;;;;;12.87;51.57;102438.27;1812424;77;21130;-64
2021/10/26 09:23:28;;;;;;;5.12;2.15;;;;;;;12.82;51.15;102439.69;1808767;77;21556;-63
2021/10/26 09:26:45;;;;;;;6.53;2.42;;;;;;;12.77;51.34;102432.16;1807338;77;21123;-63
2021/10/26 09:34:59;;;;;;;7.12;2.58;;;;;;;12.53;52.05;102430.76;1800358;77;21164;-68
2021/10/26 09:42:53;;;;;;;3.87;1.82;;;;;;;12.49;52.87;102423.22;1771444;79;20980;-62
2021/10/26 09:48:13;;;;;;;3.98;2.20;;;;;;;12.41;52.51;102415.70;1805286;77;21177;-62
2021/10/26 09:50:43;;;;;;;6.87;2.40;;;;;;;12.25;52.94;102409.22;1805607;78;21042;-62
2021/10/26 09:58:26;;;;;;;4.20;2.30;;;;;;;12.05;52.67;102405.49;1801446;78;21107;-62
2021/10/26 10:01:09;;;;;;;3.08;2.15;;;;;;;11.97;52.67;102410.08;1799152;78;21581;-61
2021/10/26 10:03:36;;;;;;;5.75;2.47;;;;;;;11.95;53.20;102396.64;1802421;78;20965;-63
2021/10/26 10:06:10;;;;;;;4.83;2.30;;;;;;;11.97;52.95;102398.84;1764736;79;21068;-63
2021/10/26 10:08:37;;;;;;;4.22;2.30;;;;;;;11.93;52.86;102396.22;1807385;77;20965;-63
2021/10/26 10:11:09;;;;;;;5.15;2.25;;;;;;;11.85;52.75;102396.36;1797067;78;21079;-61
2021/10/26 10:13:41;;;;;;;4.10;2.00;;;;;;;11.73;53.38;102390.70;1806311;78;22058;-61
2021/10/26 10:16:30;;;;;;;3.50;2.45;;;;;;;11.71;53.83;102393.39;1813812;77;21063;-63
2021/10/26 10:24:28;;;;;;;3.55;2.10;;;;;;;11.71;54.04;102385.33;1811480;78;20901;-62
2021/10/26 10:26:55;;;;;;;8.68;2.77;;;;;;;11.71;54.39;102373.23;1766699;80;21107;-62
2021/10/26 10:34:41;;;;;;;3.83;2.00;;;;;;;11.69;54.29;102368.34;1758541;79;21081;-63
2021/10/26 10:37:08;;;;;;;3.83;2.08;;;;;;;11.64;53.76;102368.86;1691518;82;21139;-61
2021/10/26 10:42:25;;;;;;;3.37;2.30;;;;;;;11.61;54.18;102364.41;1763532;79;21036;-67
2021/10/26 10:44:56;;;;;;;5.75;2.12;;;;;;;11.68;54.78;102359.84;1766368;79;21121;-66
2021/10/26 10:47:41;;;;;;;4.05;2.30;;;;;;;11.69;55.04;102353.56;1766920;80;21045;-65
2021/10/26 10:50:25;;;;;;;4.58;2.17;;;;;;;11.68;55.19;102357.16;1769496;79;20921;-65
2021/10/26 10:53:20;;;;;;;3.02;1.87;;;;;;;11.66;55.38;102349.58;1768354;80;21737;-66
2021/10/26 10:55:52;;;;;;;3.60;1.93;;;;;;;11.66;55.25;102342.86;1772603;79;21029;-64
2021/10/26 10:58:40;;;;;;;3.75;2.47;;;;;;;11.66;55.08;102348.23;1774222;78;22177;-64
2021/10/26 11:01:36;;;;;;;4.22;2.15;;;;;;;11.69;54.62;102344.16;1772529;79;20895;-64
2021/10/26 11:14:56;;;;;;;3.67;2.02;;;;;;;11.59;54.77;102324.59;1839233;77;21630;-63
2021/10/26 11:18:01;;;;;;;4.28;2.55;;;;;;;11.54;54.96;102325.55;1832203;76;21571;-67
2021/10/26 11:23:14;;;;;;;3.87;2.20;;;;;;;11.43;55.73;102314.95;1842056;76;21027;-68
2021/10/26 11:25:46;;;;;;;5.25;1.90;;;;;;;11.43;55.76;102314.52;1827401;76;20952;-67
2021/10/26 11:28:20;;;;;;;4.37;2.27;;;;;;;11.43;56.39;102303.78;1828707;77;20869;-66
2021/10/26 11:30:55;;;;;;;3.00;1.62;;;;;;;11.43;56.31;102299.75;1826678;77;21079;-68
2021/10/26 11:33:29;;;;;;;3.83;2.27;;;;;;;11.40;56.97;102294.86;1829861;76;21077;-66
2021/10/26 11:36:03;;;;;;;5.17;2.10;;;;;;;11.40;56.97;102294.86;1830324;76;21295;-67
2021/10/26 11:38:59;;;;;;;5.72;1.90;;;;;;;11.37;56.96;102304.31;1782428;78;21012;-66
2021/10/26 11:41:28;;;;;;;3.15;2.00;;;;;;;11.31;56.54;102300.80;1787913;78;21123;-65
2021/10/26 11:47:29;;;;;;;4.92;2.30;;;;;;;11.17;57.10;102286.66;1766526;79;21426;-66
2021/10/26 11:52:59;;;;;;;5.75;2.12;;;;;;;11.05;58.04;102282.34;1758317;79;21074;-66
2021/10/26 12:00:38;;;;;;;3.00;1.90;;;;;;;11.07;58.11;102285.89;1821078;77;21536;-67
2021/10/26 12:06:02;;;;;;;5.42;2.40;;;;;;;11.10;59.02;102284.50;1822300;76;21533;-69
2021/10/26 12:13:53;;;;;;;2.90;2.00;;;;;;;11.14;58.49;102276.84;1770339;79;20223;-65
2021/10/26 12:16:24;;;;;;;6.62;1.92;;;;;;;11.14;58.79;102277.31;1766671;79;21095;-65
2021/10/26 12:18:51;;;;;;;8.88;2.35;;;;;;;11.15;58.95;102278.61;1756766;80;21000;-66
2021/10/26 12:21:18;;;;;;;5.28;2.10;;;;;;;11.12;59.42;102271.94;1796126;78;20961;-67
2021/10/26 12:31:37;;;;;;;4.92;1.92;;;;;;;11.22;59.43;102261.10;1766633;78;21139;-63
2021/10/26 12:34:19;;;;;;;3.40;1.80;;;;;;;11.26;59.42;102277.13;1792030;78;21022;-63
2021/10/26 12:36:46;;;;;;;3.87;1.80;;;;;;;11.23;59.37;102265.09;1760108;80;21962;-64
2021/10/26 12:45:34;;;;;;;7.12;1.90;;;;;;;11.30;59.89;102257.84;1784418;78;21111;-63
2021/10/26 12:51:09;;;;;;;3.25;1.77;;;;;;;11.40;59.69;102267.57;1763768;79;21139;-65
2021/10/26 12:53:41;;;;;;;4.30;1.98;;;;;;;11.39;59.30;102256.39;1767867;79;21062;-68
2021/10/26 12:56:30;;;;;;;3.33;2.00;;;;;;;11.40;59.37;102262.20;1770401;79;21161;-68
2021/10/26 12:59:16;;;;;;;3.45;2.00;;;;;;;11.43;59.14;102259.46;1769185;79;21168;-67
2021/10/26 13:02:00;;;;;;;2.80;1.90;;;;;;;11.44;58.99;102255.87;1765102;79;21437;-71
2021/10/26 13:04:28;;;;;;;4.90;2.20;;;;;;;11.50;59.41;102252.65;1771818;79;21741;-70
2021/10/26 13:07:32;;;;;;;2.60;1.80;;;;;;;11.49;59.46;102261.15;1775669;79;21011;-67
2021/10/26 13:18:06;;;;;;;3.90;2.00;;;;;;;11.34;60.01;102243.94;1792547;78;21718;-66
2021/10/26 13:28:32;;;;;;;5.42;1.90;;;;;;;11.38;59.83;102231.76;1744866;80;21146;-67
2021/10/26 13:36:39;;;;;;;4.58;1.90;;;;;;;11.32;60.71;102226.48;1785860;79;21033;-67
2021/10/26 13:39:23;;;;;;;2.22;1.60;;;;;;;11.28;60.64;102224.33;1765087;80;21049;-69
2021/10/26 13:44:32;;;;;;;3.80;1.90;;;;;;;11.26;61.06;102226.59;1788758;78;22662;-67
2021/10/26 13:46:59;;;;;;;6.12;2.30;;;;;;;11.22;60.96;102223.52;1792092;79;21539;-68
2021/10/26 13:49:51;;;;;;;6.42;2.10;;;;;;;11.18;61.28;102219.97;1789943;78;21132;-67
2021/10/26 13:52:19;;;;;;;6.25;1.98;;;;;;;11.15;61.68;102214.66;1787112;78;21075;-66
2021/10/26 13:54:46;;;;;;;2.98;1.72;;;;;;;11.10;62.08;102219.20;1781453;78;21145;-67
2021/10/26 13:57:13;;;;;;;3.40;1.70;;;;;;;11.07;62.09;102224.16;1795584;79;21060;-68
2021/10/26 14:00:17;;;;;;;2.42;1.77;;;;;;;11.03;62.14;102219.73;1794017;78;21113;-69
2021/10/26 14:02:57;;;;;;;7.72;2.08;;;;;;;11.00;62.09;102217.97;1789685;79;20964;-67
2021/10/26 14:05:42;;;;;;;4.50;1.90;;;;;;;10.97;62.54;102217.14;1782827;79;21098;-67
2021/10/26 14:08:10;;;;;;;2.40;1.70;;;;;;;10.95;62.65;102217.15;1791256;79;21083;-67
2021/10/26 14:10:40;;;;;;;4.25;1.98;;;;;;;10.88;62.79;102209.63;1777713;78;22129;-66
2021/10/26 14:15:47;;;;;;;4.25;2.50;;;;;;;10.92;62.86;102220.31;1757962;79;20984;-67
2021/10/26 14:18:14;;;;;;;4.70;2.00;;;;;;;10.88;63.02;102208.28;1775067;80;21075;-68
2021/10/26 14:23:12;;;;;;;2.33;1.77;;;;;;;10.81;63.47;102214.65;1767162;79;21153;-68
2021/10/26 14:31:07;;;;;;;4.87;1.80;;;;;;;10.63;64.02;102209.50;1766687;80;21106;-66
2021/10/26 14:33:36;;;;;;;3.22;1.77;;;;;;;10.54;64.40;102206.03;1786374;78;21055;-66
2021/10/26 14:36:19;;;;;;;3.00;1.98;;;;;;;10.51;64.34;102210.09;1782437;78;21834;-71
2021/10/26 14:58:02;;;;;;;4.03;2.05;;;;;;;10.44;64.94;102210.61;1752006;80;21128;-68
2021/10/26 15:03:08;;;;;;;4.78;1.80;;;;;;;10.43;64.79;102203.91;1774065;79;21071;-70
2021/10/26 15:05:35;;;;;;;3.08;2.08;;;;;;;10.42;64.95;102209.74;1779921;78;20956;-69
2021/10/26 15:08:02;;;;;;;4.08;1.87;;;;;;;10.43;64.75;102215.98;1786400;78;21486;-69
2021/10/26 15:13:12;;;;;;;2.52;1.67;;;;;;;10.37;65.14;102206.63;1762341;78;21627;-71
2021/10/26 15:15:33;;;;;;;4.60;1.70;;;;;;;10.32;65.46;102206.23;1773583;78;21141;-72
2021/10/26 15:20:39;;;;;;;3.25;1.90;;;;;;;10.25;66.30;102215.23;1803021;79;21328;-70
2021/10/26 15:23:05;;;;;;;4.20;1.98;;;;;;;10.22;66.74;102213.92;1747784;80;21138;-73
2021/10/26 15:33:38;;;;;;;3.92;1.85;;;;;;;10.20;67.15;102213.52;1792798;78;21072;-71
2021/10/26 15:36:05;;;;;;;2.45;1.85;;;;;;;10.19;67.14;102209.94;1792018;78;21639;-72
2021/10/26 15:41:16;;;;;;;3.33;1.90;;;;;;;10.16;66.91;102213.52;1759801;78;21051;-71
2021/10/26 15:49:36;;;;;;;4.70;1.92;;;;;;;10.23;67.56;102221.53;1792486;78;21143;-71
2021/10/26 15:57:19;;;;;;;6.00;2.10;;;;;;;10.16;67.69;102218.02;1787032;78;21611;-71
2021/10/26 15:59:47;;;;;;;3.70;2.10;;;;;;;10.15;68.04;102222.94;1797178;78;21013;-71
2021/10/26 16:02:15;;;;;;;3.12;1.80;;;;;;;10.17;68.06;102216.67;1798939;78;21138;-70
2021/10/26 16:04:42;;;;;;;3.50;2.00;;;;;;;10.18;68.20;102217.11;1789702;78;21469;-71
2021/10/26 16:12:27;;;;;;;3.30;1.90;;;;;;;10.18;68.64;102221.13;1766934;80;21107;-73
2021/10/26 16:17:37;;;;;;;3.87;1.87;;;;;;;10.17;68.53;102219.35;1760168;80;21134;-70
2021/10/26 16:22:36;;;;;;;7.37;2.80;;;;;;;10.15;68.62;102216.23;1767016;80;21545;-70
2021/10/26 16:32:53;;;;;;;3.37;2.25;;;;;;;10.21;68.79;102208.12;1794132;79;21518;-71
2021/10/26 16:35:20;;;;;;;4.67;2.30;;;;;;;10.18;68.88;102211.75;1784439;78;21047;-65
2021/10/26 16:37:50;;;;;;;6.60;2.33;;;;;;;10.22;68.81;102213.92;1780391;78;21088;-62
2021/10/26 16:48:05;;;;;;;4.85;2.50;;;;;;;10.18;69.01;102212.19;1796018;78;21049;-71
2021/10/26 16:58:39;;;;;;;7.50;3.47;;;;;;;10.22;69.07;102207.22;1765674;80;21561;-62
2021/10/26 17:01:09;;;;;;;9.68;2.67;;;;;;;10.23;69.09;102208.12;1765600;78;21651;-62
2021/10/26 17:03:36;;;;;;;5.08;2.98;;;;;;;10.21;69.22;102206.78;1770824;80;21134;-63
2021/10/26 17:06:03;;;;;;;4.78;1.95;;;;;;;10.19;69.28;102203.23;1763743;79;21483;-72
2021/10/26 17:08:30;;;;;;;5.25;1.80;;;;;;;10.19;69.06;102205.91;1776061;79;21369;-61
2021/10/26 17:13:26;;;;;;;3.92;2.00;;;;;;;10.18;69.20;102197.00;1751826;80;21049;-72
2021/10/26 17:18:31;;;;;;;5.65;2.70;;;;;;;10.21;69.63;102196.53;1763213;79;21746;-63
2021/10/26 17:20:59;;;;;;;5.72;2.75;;;;;;;10.20;69.58;102187.59;1774485;79;22003;-70
2021/10/26 17:23:26;;;;;;;5.47;2.05;;;;;;;10.20;69.59;102197.44;1778875;79;21787;-63
2021/10/26 17:25:59;;;;;;;4.20;2.30;;;;;;;10.18;69.51;102192.08;1761366;79;21139;-63
2021/10/26 17:28:41;;;;;;;3.98;2.20;;;;;;;10.16;69.66;102187.19;1773975;79;21122;-67
2021/10/26 17:31:08;;;;;;;7.90;2.20;;;;;;;10.17;69.65;102187.62;1782751;78;21071;-71
2021/10/26 17:33:36;;;;;;;3.83;2.25;;;;;;;10.14;69.64;102184.98;1783828;78;21127;-61
2021/10/26 17:36:05;;;;;;;4.78;2.20;;;;;;;10.17;69.69;102191.64;1766060;79;22069;-71
2021/10/26 17:38:34;;;;;;;3.65;2.17;;;;;;;10.18;69.54;102185.38;1762220;79;20998;-63